createdAt,value
2016-09-01T00:00:15.746Z,64.24
2016-09-01T00:02:30.340Z,64.15
2016-09-01T00:03:30.325Z,63.02
2016-09-01T00:04:15.606Z,63.6
2016-09-01T00:06:15.571Z,63.98
2016-09-01T00:07:15.578Z,64.24
2016-09-01T00:08:15.535Z,64.43
2016-09-01T00:09:15.493Z,64.92
2016-09-01T00:10:15.588Z,65.11
2016-09-01T00:11:15.528Z,65.4
2016-09-01T00:12:15.418Z,65.95
2016-09-01T00:13:16.280Z,65.75
2016-09-01T00:14:16.165Z,65.85
2016-09-01T00:15:15.367Z,66.72
2016-09-01T00:16:15.354Z,66.52
2016-09-01T00:17:16.101Z,66.33
2016-09-01T00:18:15.296Z,66.62
2016-09-01T00:19:15.296Z,66.43
2016-09-01T00:20:30.258Z,66.52
2016-09-01T00:21:15.216Z,66.72
2016-09-01T00:22:15.981Z,65.75
2016-09-01T00:23:15.165Z,65.85
2016-09-01T00:24:15.149Z,65.75
2016-09-01T00:25:16.327Z,65.88
2016-09-01T00:26:15.075Z,65.85
2016-09-01T00:27:15.047Z,64.98
2016-09-01T00:28:15.043Z,65.01
2016-09-01T00:29:15.021Z,64.98
2016-09-01T00:30:15.758Z,65.01
2016-09-01T00:31:14.976Z,65.2
2016-09-01T00:32:14.929Z,65.01
2016-09-01T00:33:14.952Z,65.2
2016-09-01T00:34:14.900Z,65.88
2016-09-01T00:35:14.853Z,65.66
2016-09-01T00:36:14.886Z,64.98
2016-09-01T00:37:14.810Z,64.43
2016-09-01T00:38:14.780Z,64.63
2016-09-01T00:39:14.777Z,65.3
2016-09-01T00:40:14.747Z,65.37
2016-09-01T00:41:14.719Z,65.3
2016-09-01T00:42:14.682Z,65.01
2016-09-01T00:43:14.668Z,65.3
2016-09-01T00:44:29.663Z,65.78
2016-09-01T00:45:15.402Z,65.95
2016-09-01T00:46:29.289Z,65.08
2016-09-01T00:47:14.563Z,64.05
2016-09-01T00:48:14.568Z,64.43
2016-09-01T00:49:15.314Z,64.43
2016-09-01T00:50:14.516Z,65.88
2016-09-01T00:51:14.493Z,65.75
2016-09-01T00:52:14.453Z,65.88
2016-09-01T00:53:29.105Z,65.95
2016-09-01T00:54:14.399Z,65.85
2016-09-01T00:55:14.417Z,66.43
2016-09-01T00:56:14.360Z,65.95
2016-09-01T00:57:14.317Z,65.56
2016-09-01T00:58:14.310Z,66.72
2016-09-01T00:59:14.285Z,65.27
2016-09-01T01:00:14.241Z,64.15
2016-09-01T01:01:14.232Z,63.12
2016-09-01T01:02:14.205Z,63.6
2016-09-01T01:03:14.969Z,64.34
2016-09-01T01:04:14.141Z,64.43
2016-09-01T01:05:14.162Z,63.85
2016-09-01T01:06:14.097Z,64.92
2016-09-01T09:03:51.436Z,62.85
2016-09-01T09:04:36.841Z,62.17
2016-09-01T09:05:36.710Z,61.98
2016-09-01T09:06:37.644Z,62.17
2016-09-01T09:07:40.626Z,62.56
2016-09-01T09:08:37.509Z,62.07
2016-09-01T09:09:38.008Z,61.98
2016-09-01T09:10:37.834Z,62.27
2016-09-01T09:11:37.591Z,62.07
2016-09-01T09:13:37.527Z,60.91
2016-09-01T09:14:37.795Z,62.07
2016-09-01T09:16:51.131Z,61.3
2016-09-01T09:17:37.703Z,61.69
2016-09-01T09:18:36.765Z,61.01
2016-09-01T09:19:37.300Z,61.11
2016-09-01T09:20:37.250Z,61.11
2016-09-01T09:21:51.061Z,61.3
2016-09-01T09:22:36.468Z,61.49
2016-09-01T09:23:36.531Z,61.3
2016-09-01T09:24:36.312Z,60.52
2016-09-01T09:25:50.978Z,60.62
2016-09-01T09:26:37.630Z,59.94
2016-09-01T09:27:51.117Z,61.21
2016-09-01T09:28:36.246Z,61.21
2016-09-01T09:29:37.726Z,61.4
2016-09-01T09:30:36.630Z,60.24
2016-09-01T09:31:37.366Z,60.62
2016-09-01T09:32:50.854Z,60.33
2016-09-01T09:33:36.068Z,60.04
2016-09-01T09:35:37.320Z,60.33
2016-09-01T09:36:51.072Z,60.43
2016-09-01T09:37:38.190Z,60.43
2016-09-01T09:38:42.434Z,60.33
2016-09-01T09:39:36.405Z,60.24
2016-09-01T09:40:36.843Z,60.24
2016-09-01T09:41:36.668Z,60.14
2016-09-01T09:42:36.155Z,60.36
2016-09-01T09:43:50.495Z,59.3
2016-09-01T09:44:35.813Z,60.36
2016-09-01T09:45:37.041Z,60.17
2016-09-01T09:46:37.554Z,60.17
2016-09-01T09:47:36.546Z,60.27
2016-09-01T09:48:35.704Z,60.17
2016-09-01T09:49:50.353Z,60.14
2016-09-01T09:50:36.576Z,59.97
2016-09-01T09:51:36.758Z,60.17
2016-09-01T09:52:37.252Z,60.94
2016-09-01T09:53:35.807Z,60.07
2016-09-01T09:54:50.221Z,60.27
2016-09-01T09:55:37.076Z,60.07
2016-09-01T09:57:36.738Z,59.69
2016-09-01T09:59:36.867Z,59.78
2016-09-01T10:00:50.086Z,59.88
2016-09-01T10:01:36.702Z,59.39
2016-09-01T10:02:50.034Z,58.23
2016-09-01T10:03:35.348Z,59.03
2016-09-01T10:04:35.491Z,58.74
2016-09-01T10:06:36.606Z,59
2016-09-01T10:07:35.250Z,58.72
2016-09-01T10:08:36.323Z,58.62
2016-09-01T10:09:35.442Z,58.91
2016-09-01T10:10:35.495Z,58.04
2016-09-01T10:11:35.183Z,58.81
2016-09-01T10:12:36.616Z,59
2016-09-01T10:13:36.769Z,58.91
2016-09-01T10:14:37.174Z,57.75
2016-09-01T10:15:49.769Z,58.94
2016-09-01T10:16:35.131Z,57.87
2016-09-01T10:17:50.058Z,58.94
2016-09-01T10:18:36.502Z,57.87
2016-09-01T10:19:49.650Z,57.87
2016-09-01T10:20:54.421Z,58.06
2016-09-01T10:23:35.956Z,58.16
2016-09-01T10:24:36.612Z,57.39
2016-09-01T10:25:35.084Z,57.39
2016-09-01T10:26:36.323Z,57.09
2016-09-01T10:27:34.789Z,56.61
2016-09-01T10:28:35.716Z,56.81
2016-09-01T10:29:34.743Z,57.09
2016-09-01T10:30:36.397Z,57.39
2016-09-01T10:31:39.786Z,57.68
2016-09-01T10:32:35.174Z,57.39
2016-09-01T10:33:49.370Z,56.83
2016-09-01T10:34:36.612Z,57.42
2016-09-01T10:35:35.466Z,57.19
2016-09-01T10:36:49.837Z,57
2016-09-01T10:38:36.433Z,56.9
2016-09-01T10:39:34.619Z,57.48
2016-09-01T10:40:35.397Z,56.9
2016-09-01T10:41:49.758Z,56.71
2016-09-01T10:42:35.259Z,56.9
2016-09-01T10:43:49.773Z,56.9
2016-09-01T10:44:36.289Z,56.25
2016-09-01T10:45:36.779Z,56.74
2016-09-01T10:49:01.309Z,56.54
2016-09-01T10:50:47.514Z,56.74
2016-09-01T10:51:47.252Z,56.54
2016-09-01T10:53:01.185Z,56.9
2016-09-01T10:56:01.004Z,57.58
2016-09-01T10:56:46.769Z,57.51
2016-09-01T10:57:47.681Z,56.64
2016-09-01T10:59:01.375Z,56.67
2016-09-01T11:00:56.251Z,57.8
2016-09-01T11:04:10.373Z,57.03
2016-09-01T11:06:04.241Z,57.03
2016-09-01T11:08:05.751Z,57.42
2016-09-01T11:11:06.835Z,56.93
2016-09-01T11:12:05.628Z,56.74
2016-09-01T11:13:04.345Z,56.64
2016-09-01T11:14:05.438Z,56.71
2016-09-01T11:15:18.691Z,57.29
2016-09-01T11:16:05.125Z,56.64
2016-09-01T11:17:05.153Z,56.93
2016-09-01T11:18:04.379Z,56.45
2016-09-01T11:19:06.831Z,57.15
2016-09-01T11:21:03.917Z,56.93
2016-09-01T11:22:03.865Z,56.76
2016-09-01T11:23:06.411Z,55.69
2016-09-01T11:25:18.403Z,55.67
2016-09-01T11:26:03.922Z,55.87
2016-09-01T11:27:05.055Z,54.82
2016-09-01T11:28:03.663Z,55.21
2016-09-01T11:29:04.744Z,55.5
2016-09-01T11:30:04.860Z,55.5
2016-09-01T11:31:03.649Z,54.94
2016-09-01T11:32:04.442Z,54.46
2016-09-01T11:34:03.719Z,54.1
2016-09-01T11:35:05.410Z,54.17
2016-09-01T11:36:18.166Z,55.04
2016-09-01T11:37:18.581Z,54.94
2016-09-01T11:38:05.095Z,54.85
2016-09-01T11:39:05.279Z,55.82
2016-09-01T11:40:18.488Z,54.46
2016-09-01T11:41:05.155Z,53.97
2016-09-01T11:43:04.280Z,54.17
2016-09-01T11:44:03.372Z,53.78
2016-09-01T11:45:04.857Z,54.63
2016-09-01T11:46:04.105Z,55.5
2016-09-01T11:49:04.929Z,55.41
2016-09-01T11:51:04.100Z,54.53
2016-09-01T11:56:17.921Z,54.85
2016-09-01T11:57:03.050Z,55.04
2016-09-01T11:59:03.585Z,55.89
2016-09-01T12:00:05.430Z,55.14
2016-09-01T12:01:07.639Z,55.24
2016-09-01T12:02:02.910Z,54.94
2016-09-01T12:04:03.099Z,55.6
2016-09-01T12:05:03.638Z,56.4
2016-09-01T12:06:03.501Z,55.69
2016-09-01T12:08:04.832Z,55.73
2016-09-01T12:11:04.044Z,55.99
2016-09-01T12:13:02.793Z,55.43
2016-09-01T12:14:03.213Z,55.92
2016-09-01T12:15:03.368Z,55.43
2016-09-01T12:16:03.544Z,55.11
2016-09-01T12:18:17.740Z,56.01
2016-09-01T12:19:02.746Z,54.94
2016-09-01T12:20:03.553Z,55.73
2016-09-01T12:21:02.614Z,54.94
2016-09-01T12:24:03.707Z,54.94
2016-09-01T12:25:04.509Z,55.63
2016-09-01T12:26:02.718Z,56.4
2016-09-01T12:27:02.690Z,55.24
2016-09-01T12:28:04.688Z,55.04
2016-09-01T12:29:04.246Z,55.14
2016-09-01T12:30:04.923Z,54.39
2016-09-01T12:31:03.688Z,54.29
2016-09-01T12:32:03.476Z,55.07
2016-09-01T12:33:03.705Z,54.68
2016-09-01T12:34:02.364Z,54.52
2016-09-01T12:35:17.179Z,53.83
2016-09-01T12:38:02.195Z,53.16
2016-09-01T12:39:03.763Z,53.08
2016-09-01T12:40:16.962Z,53.74
2016-09-01T12:41:02.986Z,53.74
2016-09-01T12:43:02.058Z,52.76
2016-09-01T12:46:16.638Z,53.35
2016-09-01T12:47:04.771Z,54.22
2016-09-01T12:48:03.645Z,52.96
2016-09-01T12:49:18.045Z,52.76
2016-09-01T12:50:03.981Z,52.96
2016-09-01T12:51:02.700Z,52.76
2016-09-01T12:52:03.792Z,52.67
2016-09-01T12:53:01.894Z,52.69
2016-09-01T12:54:02.727Z,52.59
2016-09-01T12:55:01.912Z,53.57
2016-09-01T12:56:02.190Z,52.21
2016-09-01T12:58:16.549Z,51.53
2016-09-01T13:00:01.637Z,51.62
2016-09-01T13:01:04.299Z,51.33
2016-09-01T13:02:02.379Z,50.85
2016-09-01T13:03:01.812Z,51.53
2016-09-01T13:04:02.975Z,51.65
2016-09-01T13:05:03.547Z,50.68
2016-09-01T13:06:02.682Z,49.8
2016-09-01T13:07:04.837Z,49.99
2016-09-01T13:08:03.240Z,49.99
2016-09-01T13:09:04.788Z,49.02
2016-09-01T13:10:02.410Z,50.26
2016-09-01T13:11:02.516Z,49.97
2016-09-01T13:12:01.793Z,50.68
2016-09-01T13:13:02.605Z,49.97
2016-09-01T13:14:16.996Z,50.78
2016-09-01T13:15:16.647Z,49.87
2016-09-01T13:16:16.319Z,50.75
2016-09-01T13:17:01.723Z,50.75
2016-09-01T13:18:15.852Z,50.75
2016-09-01T13:19:03.418Z,51.33
2016-09-01T13:21:05.907Z,49.9
2016-09-01T13:22:02.297Z,50.09
2016-09-01T13:23:03.347Z,50.29
2016-09-01T13:25:01.987Z,50.56
2016-09-01T13:27:15.669Z,51.14
2016-09-01T13:28:15.749Z,51.17
2016-09-01T13:29:02.142Z,53.18
2016-09-01T13:30:01.478Z,51.43
2016-09-01T13:31:02.984Z,51.33
2016-09-01T13:33:01.178Z,52.01
2016-09-01T13:34:01.308Z,51.62
2016-09-01T13:35:03.167Z,51.33
2016-09-01T13:36:02.251Z,51.53
2016-09-01T13:37:01.669Z,51.5
2016-09-01T13:38:02.016Z,52.21
2016-09-01T13:39:01.842Z,51.82
2016-09-01T13:40:04.517Z,52.86
2016-09-01T13:41:01.396Z,51.89
2016-09-01T13:43:04.088Z,52.37
2016-09-01T13:44:06.797Z,52.59
2016-09-01T13:45:01.838Z,51.23
2016-09-01T13:46:03.724Z,51.92
2016-09-01T13:48:15.288Z,50.68
2016-09-01T13:49:01.865Z,50.48
2016-09-01T13:52:15.643Z,46.83
2016-09-01T13:53:03.040Z,46.7
2016-09-01T13:54:00.534Z,46.34
2016-09-01T13:55:00.441Z,46.75
2016-09-01T13:56:00.995Z,46.7
2016-09-01T13:57:00.422Z,46.8
2016-09-01T13:59:01.620Z,47.46
2016-09-01T14:02:02.317Z,45.62
2016-09-01T14:03:00.588Z,42.54
2016-09-01T14:04:14.898Z,42.78
2016-09-01T14:05:02.969Z,43.49
2016-09-01T14:09:15.323Z,46.41
2016-09-01T14:10:15.309Z,47.56
2016-09-01T14:11:06.698Z,46.2
2016-09-01T14:13:13.442Z,48.1
2016-09-01T14:15:11.602Z,49.05
2016-09-01T14:16:14.847Z,49.12
2016-09-01T14:17:26.797Z,49.71
2016-09-01T14:18:13.784Z,49.99
2016-09-01T14:19:26.092Z,50.38
2016-09-01T14:20:13.678Z,50.58
2016-09-01T14:21:12.216Z,50.68
2016-09-01T14:22:12.503Z,50.87
2016-09-01T14:23:11.486Z,50.68
2016-09-01T14:24:13.012Z,51.04
2016-09-01T14:25:25.960Z,52.31
2016-09-01T14:27:12.067Z,52.86
2016-09-01T14:28:25.947Z,52.69
2016-09-01T14:29:12.062Z,51.82
2016-09-01T14:30:25.918Z,51.62
2016-09-01T14:31:25.841Z,50.85
2016-09-01T14:32:11.233Z,50.12
2016-09-01T14:33:11.193Z,49.76
2016-09-01T14:35:11.811Z,49.66
2016-09-01T14:36:12.330Z,49.56
2016-09-01T14:37:12.381Z,50.24
2016-09-01T14:38:11.211Z,50.34
2016-09-01T14:39:11.835Z,50.51
2016-09-01T14:41:11.851Z,50.78
2016-09-01T14:42:26.484Z,50.6
2016-09-01T14:43:10.938Z,50.7
2016-09-01T14:44:12.136Z,50.68
2016-09-01T14:45:12.556Z,50.78
2016-09-01T14:46:12.886Z,51.26
2016-09-01T14:47:12.680Z,52.69
2016-09-01T14:48:26.105Z,52.86
2016-09-01T14:49:10.936Z,52.67
2016-09-01T14:50:10.798Z,53.06
2016-09-01T14:54:20.032Z,52.96
2016-09-01T14:55:19.605Z,53.25
2016-09-01T14:56:21.642Z,53.42
2016-09-01T14:58:21.164Z,54.49
2016-09-01T14:59:21.316Z,54.49
2016-09-01T15:00:20.862Z,54.49
2016-09-01T15:02:19.128Z,54.39
2016-09-01T15:05:20.015Z,54.85
2016-09-01T15:06:19.877Z,55.04
2016-09-01T15:07:19.104Z,54.75
2016-09-01T15:08:20.017Z,54.56
2016-09-01T15:09:20.429Z,54.75
2016-09-01T15:11:18.961Z,55.02
2016-09-01T15:12:33.578Z,55.6
2016-09-01T15:13:20.132Z,55.87
2016-09-01T15:14:19.782Z,56.25
2016-09-01T15:15:19.458Z,56.25
2016-09-01T15:16:19.639Z,56.05
2016-09-01T15:17:20.083Z,56.35
2016-09-01T15:20:19.623Z,56.74
2016-09-01T15:21:20.572Z,56.64
2016-09-01T15:22:20.461Z,56.74
2016-09-01T15:26:20.603Z,56.28
2016-09-01T15:27:20.987Z,56.09
2016-09-01T15:28:19.440Z,56.25
2016-09-01T15:29:20.232Z,56.74
2016-09-01T15:31:19.911Z,57.06
2016-09-01T15:32:21.161Z,56.09
2016-09-01T15:33:33.258Z,55.99
2016-09-01T15:34:33.050Z,56.37
2016-09-01T15:35:19.752Z,56.28
2016-09-01T15:36:19.999Z,56.28
2016-09-01T15:37:33.071Z,56.57
2016-09-01T15:38:19.818Z,56.54
2016-09-01T15:40:31.197Z,56.76
2016-09-01T15:41:42.278Z,56.37
2016-09-01T15:42:29.467Z,56.21
2016-09-01T15:44:29.864Z,56.4
2016-09-01T15:45:30.050Z,55.92
2016-09-01T15:47:29.127Z,56.4
2016-09-01T15:48:30.751Z,56.21
2016-09-01T15:50:27.409Z,56.01
2016-09-01T15:53:30.610Z,55.53
2016-09-01T15:54:27.844Z,56.01
2016-09-01T15:55:29.992Z,54.85
2016-09-01T15:56:30.200Z,56.21
2016-09-01T15:58:27.830Z,55.73
2016-09-01T15:59:42.425Z,55.73
2016-09-01T16:01:27.586Z,56.01
2016-09-01T16:03:29.532Z,55.63
2016-09-01T16:07:41.043Z,57.12
2016-09-01T16:08:41.526Z,56.57
2016-09-01T16:11:39.776Z,56.96
2016-09-01T16:12:41.633Z,57.44
2016-09-01T16:13:40.343Z,56.57
2016-09-01T16:14:54.386Z,56.67
2016-09-01T16:15:42.019Z,56.96
2016-09-01T16:17:49.054Z,57.73
2016-09-01T16:20:02.707Z,57.34
2016-09-01T16:20:48.838Z,57.54
2016-09-01T16:21:50.717Z,58.31
2016-09-01T16:22:49.144Z,57.83
2016-09-01T16:23:48.945Z,58.22
2016-09-01T16:30:02.752Z,59.67
2016-09-01T16:30:48.637Z,59.09
2016-09-01T16:32:03.964Z,59.87
2016-09-01T16:32:50.076Z,59.55
2016-09-01T16:33:51.533Z,59.19
2016-09-01T16:34:48.466Z,59.38
2016-09-01T16:35:47.932Z,58.9
2016-09-01T16:36:47.673Z,60.16
2016-09-01T16:38:02.266Z,59.36
2016-09-01T16:38:50.823Z,59.28
2016-09-01T16:39:47.839Z,60.45
2016-09-01T16:40:47.707Z,60.25
2016-09-01T16:42:03.601Z,61.22
2016-09-01T16:43:04.082Z,60.35
2016-09-01T16:43:49.938Z,60.25
2016-09-01T16:44:48.249Z,60.06
2016-09-01T16:45:48.355Z,60.03
2016-09-01T16:47:02.025Z,60.61
2016-09-01T16:48:51.236Z,61.19
2016-09-01T16:51:01.920Z,59.81
2016-09-01T16:51:48.801Z,60.23
2016-09-01T16:53:02.544Z,60.23
2016-09-01T16:53:49.481Z,59.84
2016-09-01T16:54:47.994Z,59.74
2016-09-01T16:55:47.872Z,59.06
2016-09-01T16:56:47.414Z,59.87
2016-09-01T16:57:49.804Z,60.03
2016-09-01T16:58:48.931Z,60.23
2016-09-01T16:59:47.525Z,60.13
2016-09-01T17:01:02.645Z,60.42
2016-09-01T17:03:47.912Z,61.1
2016-09-01T17:04:47.158Z,60.61
2016-09-01T17:05:53.080Z,61.19
2016-09-01T17:06:48.860Z,61
2016-09-01T17:08:01.980Z,61.49
2016-09-01T17:08:49.124Z,61.29
2016-09-01T17:11:47.207Z,61.19
2016-09-01T17:13:47.207Z,61.22
2016-09-01T17:14:46.748Z,61.19
2016-09-01T17:15:48.163Z,61.29
2016-09-01T17:16:46.967Z,61.49
2016-09-01T17:17:58.462Z,61.19
2016-09-01T17:19:01.275Z,61.58
2016-09-01T17:21:01.254Z,61.29
2016-09-01T17:21:50.851Z,61.98
2016-09-01T17:23:46.503Z,61.52
2016-09-01T17:26:01.179Z,61.71
2016-09-01T17:27:01.570Z,61.42
2016-09-01T17:27:50.395Z,61.71
2016-09-01T17:28:50.523Z,61.71
2016-09-01T17:29:47.435Z,61.42
2016-09-01T17:31:47.854Z,61.32
2016-09-01T17:32:46.381Z,61.52
2016-09-01T17:33:46.594Z,62.39
2016-09-01T17:34:49.264Z,61.52
2016-09-01T17:37:03.960Z,61.42
2016-09-01T17:37:46.634Z,61.35
2016-09-01T17:40:46.387Z,62.78
2016-09-01T17:41:47.992Z,63.33
2016-09-01T17:43:01.288Z,62.07
2016-09-01T17:47:09.173Z,62.39
2016-09-01T17:48:56.047Z,62.55
2016-09-01T17:50:09.454Z,62.75
2016-09-01T17:51:56.471Z,62.46
2016-09-01T17:52:54.849Z,62.98
2016-09-01T17:53:55.540Z,63.13
2016-09-01T17:54:54.535Z,63.13
2016-09-01T17:55:54.513Z,63.23
2016-09-01T17:57:09.272Z,62.01
2016-09-01T17:58:08.909Z,61.71
2016-09-01T17:59:54.368Z,61.42
2016-09-01T18:01:09.027Z,61.55
2016-09-01T18:02:56.494Z,62.95
2016-09-01T18:03:55.153Z,63.23
2016-09-01T18:04:54.143Z,63.62
2016-09-01T18:05:56.203Z,63.33
2016-09-01T18:07:08.716Z,63.33
2016-09-01T18:07:55.742Z,63.82
2016-09-01T18:08:54.028Z,63.43
2016-09-01T18:09:53.962Z,62.29
2016-09-01T18:10:54.957Z,62.39
2016-09-01T18:12:55.157Z,63.53
2016-09-01T18:13:54.089Z,63.82
2016-09-01T18:14:56.001Z,64.47
2016-09-01T18:15:53.858Z,63.98
2016-09-01T18:16:53.969Z,64.65
2016-09-01T18:17:54.009Z,64.95
2016-09-01T18:18:55.184Z,64.65
2016-09-01T18:23:20.233Z,63.62
2016-09-01T18:25:33.299Z,64.37
2016-09-01T18:26:39.720Z,63.53
2016-09-01T18:27:19.691Z,64.01
2016-09-01T18:28:19.456Z,63.82
2016-09-01T18:29:19.484Z,63.49
2016-09-01T18:31:33.256Z,63.88
2016-09-01T18:32:33.571Z,63.91
2016-09-01T18:39:04.033Z,65.98
2016-09-01T18:41:04.064Z,66.27
2016-09-01T18:45:51.273Z,66.27
2016-09-01T18:48:04.214Z,66.17
2016-09-01T18:49:50.529Z,66.56
2016-09-01T18:50:50.241Z,66.85
2016-09-01T18:51:49.077Z,65.98
2016-09-01T18:52:50.526Z,66.08
2016-09-01T18:54:03.621Z,66.47
2016-09-01T18:55:03.594Z,65.98
2016-09-01T18:55:49.151Z,65.79
2016-09-01T18:58:03.646Z,66.85
2016-09-01T18:58:48.901Z,65.98
2016-09-01T18:59:48.882Z,65.59
2016-09-01T19:00:50.621Z,65.4
2016-09-01T19:01:48.900Z,64.72
2016-09-01T19:03:03.406Z,64.47
2016-09-01T19:03:49.166Z,65.3
2016-09-01T19:04:49.966Z,64.62
2016-09-01T19:05:49.135Z,64.92
2016-09-01T19:08:59.458Z,65.4
2016-09-01T19:11:01.152Z,64.53
2016-09-01T19:14:42.550Z,64.98
2016-09-01T19:19:03.056Z,66.17
2016-09-01T19:21:26.705Z,65.11
2016-09-01T19:24:38.540Z,65.5
2016-09-01T19:25:40.359Z,66.37
2016-09-01T19:26:25.664Z,66.43
2016-09-01T19:27:26.525Z,66.92
2016-09-01T19:28:26.864Z,66.53
2016-09-01T19:29:29.144Z,66.53
2016-09-01T19:30:25.884Z,66.92
2016-09-01T19:31:26.440Z,66.43
2016-09-01T19:32:25.911Z,66.82
2016-09-01T19:33:25.721Z,66.82
2016-09-01T19:34:25.324Z,66.34
2016-09-01T19:35:25.687Z,66.92
2016-09-01T19:36:26.716Z,66.17
2016-09-01T19:38:26.907Z,66.08
2016-09-01T19:40:36.310Z,66.27
2016-09-01T19:42:36.087Z,65.95
2016-09-01T19:43:36.280Z,66.82
2016-09-01T19:46:59.099Z,66.72
2016-09-01T19:47:59.405Z,66.14
2016-09-01T19:49:59.911Z,65.2
2016-09-01T19:50:58.883Z,64.72
2016-09-01T19:51:59.044Z,64.92
2016-09-01T19:52:45.138Z,65.59
2016-09-01T19:53:59.404Z,66.08
2016-09-01T19:55:45.661Z,66.82
2016-09-01T19:56:44.368Z,66.53
2016-09-01T19:57:59.358Z,67.21
2016-09-01T19:58:44.350Z,67.21
2016-09-01T20:00:58.837Z,67.11
2016-09-01T20:01:44.076Z,67.18
2016-09-01T20:03:44.390Z,67.66
2016-09-01T20:04:44.199Z,67.56
2016-09-01T20:05:45.999Z,67.5
2016-09-01T20:06:46.061Z,67.37
2016-09-01T20:07:45.309Z,67.46
2016-09-01T20:08:45.024Z,67.56
2016-09-01T20:09:44.129Z,67.56
2016-09-01T20:12:44.993Z,68.15
2016-09-01T20:13:44.386Z,68.05
2016-09-01T20:14:58.873Z,68.15
2016-09-01T20:15:44.474Z,68.05
2016-09-01T20:17:44.821Z,68.53
2016-09-01T20:21:46.125Z,68.88
2016-09-01T20:22:44.936Z,68.59
2016-09-01T20:24:58.071Z,67.18
2016-09-01T20:26:44.714Z,68.53
2016-09-01T20:27:44.833Z,67.91
2016-09-01T20:28:43.515Z,68.59
2016-09-01T20:29:58.330Z,68.98
2016-09-01T20:30:43.358Z,68.69
2016-09-01T20:31:57.896Z,68.69
2016-09-01T20:32:44.311Z,69.04
2016-09-01T20:35:43.355Z,69.24
2016-09-01T20:36:43.640Z,69.24
2016-09-01T20:37:43.468Z,69.43
2016-09-01T20:38:44.777Z,68.85
2016-09-01T20:39:43.629Z,68.85
2016-09-01T20:40:42.990Z,68.98
2016-09-01T20:41:42.925Z,68.69
2016-09-01T20:42:44.059Z,67.43
2016-09-01T20:44:42.934Z,67.18
2016-09-01T20:45:57.567Z,67.43
2016-09-01T20:46:43.561Z,67.82
2016-09-01T20:47:58.183Z,66.95
2016-09-01T20:50:43.377Z,66.14
2016-09-01T20:52:42.836Z,66.02
2016-09-01T20:53:43.872Z,65.95
2016-09-01T20:54:42.626Z,66.6
2016-09-01T20:55:57.278Z,67.43
2016-09-01T20:57:57.468Z,68.66
2016-09-01T20:58:57.227Z,69.04
2016-09-01T20:59:42.930Z,69.24
2016-09-01T21:00:44.275Z,69.62
2016-09-01T21:01:44.137Z,69.78
2016-09-01T21:02:43.834Z,69.68
2016-09-01T21:03:42.461Z,69.68
2016-09-01T21:04:42.836Z,69.82
2016-09-01T21:05:42.436Z,69.01
2016-09-01T21:06:42.990Z,69.04
2016-09-01T21:07:42.517Z,68.95
2016-09-01T21:08:43.580Z,69.04
2016-09-01T21:09:42.636Z,68.75
2016-09-01T21:10:42.615Z,69.72
2016-09-01T21:11:43.603Z,70.46
2016-09-01T21:12:42.276Z,70.17
2016-09-01T21:13:43.248Z,70.56
2016-09-01T21:14:42.201Z,71.04
2016-09-01T21:15:42.209Z,70.65
2016-09-01T21:16:42.124Z,70.72
2016-09-01T21:17:43.221Z,70.36
2016-09-01T21:18:42.147Z,69.68
2016-09-01T21:19:42.053Z,69.4
2016-09-01T21:20:42.907Z,69.3
2016-09-01T21:21:42.058Z,69.68
2016-09-01T21:22:42.553Z,70.26
2016-09-01T21:23:41.975Z,70.94
2016-09-01T21:24:41.935Z,70.9
2016-09-01T21:25:42.265Z,70.36
2016-09-01T21:26:43.154Z,70.56
2016-09-01T21:27:41.960Z,70.17
2016-09-01T21:28:43.471Z,70.72
2016-09-01T21:29:43.752Z,71.1
2016-09-01T21:30:56.501Z,71.58
2016-09-01T21:31:41.985Z,71.48
2016-09-01T21:32:41.962Z,71.78
2016-09-01T21:33:42.993Z,71.88
2016-09-01T21:34:42.215Z,72.06
2016-09-01T21:35:42.757Z,71.39
2016-09-01T21:36:42.909Z,71.3
2016-09-01T21:37:42.435Z,70.72
2016-09-01T21:39:42.140Z,70.23
2016-09-01T21:41:42.933Z,70.32
2016-09-01T21:42:56.280Z,70.9
2016-09-01T21:43:42.273Z,70.81
2016-09-01T21:44:41.554Z,70.72
2016-09-01T21:45:41.716Z,71.16
2016-09-01T21:46:42.529Z,71.74
2016-09-01T21:47:56.074Z,71.45
2016-09-01T21:48:42.410Z,71.55
2016-09-01T21:49:41.419Z,72.03
2016-09-01T21:50:42.660Z,72.03
2016-09-01T21:51:41.341Z,71.45
2016-09-01T21:52:42.530Z,71.36
2016-09-01T21:54:42.235Z,71.45
2016-09-01T21:55:41.301Z,71.64
2016-09-01T21:56:41.230Z,71.64
2016-09-01T21:57:41.160Z,71.74
2016-09-01T21:59:41.982Z,71.64
2016-09-01T22:00:41.980Z,72.03
2016-09-01T22:01:41.539Z,71.84
2016-09-01T22:02:41.150Z,72.61
2016-09-01T22:03:55.704Z,72.52
2016-09-01T22:04:41.242Z,71.84
2016-09-01T22:05:41.747Z,71.64
2016-09-01T22:06:42.007Z,71.55
2016-09-01T22:07:41.745Z,71.74
2016-09-01T22:08:41.398Z,71.74
2016-09-01T22:09:55.546Z,71.45
2016-09-01T22:10:41.196Z,70.58
2016-09-01T22:11:48.201Z,70.62
2016-09-01T22:12:41.067Z,70.32
2016-09-01T22:13:41.743Z,70.04
2016-09-01T22:14:40.804Z,70.9
2016-09-01T22:15:40.831Z,70.68
2016-09-01T22:16:41.828Z,71.06
2016-09-01T22:17:40.982Z,71.06
2016-09-01T22:18:40.752Z,71.26
2016-09-01T22:19:41.586Z,71.45
2016-09-01T22:20:55.336Z,71.64
2016-09-01T22:21:40.693Z,72.22
2016-09-01T22:22:41.537Z,72.67
2016-09-01T22:23:40.628Z,73.35
2016-09-01T22:24:41.609Z,73.93
2016-09-01T22:25:41.413Z,74.08
2016-09-01T22:26:55.348Z,74.18
2016-09-01T22:27:55.450Z,73.79
2016-09-01T22:28:40.406Z,74.31
2016-09-01T22:29:40.585Z,73.63
2016-09-01T22:30:41.431Z,73.73
2016-09-01T22:32:41.232Z,73.35
2016-09-01T22:33:41.212Z,73.35
2016-09-01T22:34:40.276Z,72.96
2016-09-01T22:35:40.609Z,72.28
2016-09-01T22:36:40.201Z,71.84
2016-09-01T22:37:40.204Z,70.81
2016-09-01T22:38:54.848Z,71.06
2016-09-01T22:39:40.202Z,71.36
2016-09-01T22:40:54.800Z,71.74
2016-09-01T22:41:40.090Z,71.74
2016-09-01T22:42:40.875Z,72.03
2016-09-01T22:43:41.052Z,72.71
2016-09-01T22:44:40.072Z,73.35
2016-09-01T22:45:40.117Z,73.06
2016-09-01T22:46:39.978Z,72.67
2016-09-01T22:47:54.622Z,70.54
2016-09-01T22:48:39.938Z,70.62
2016-09-01T22:50:39.880Z,70.68
2016-09-01T22:51:39.988Z,70.68
2016-09-01T22:52:54.508Z,71.55
2016-09-01T22:53:39.817Z,71.8
2016-09-01T22:54:40.787Z,72.19
2016-09-01T22:55:39.870Z,72.58
2016-09-01T22:56:39.734Z,72.48
2016-09-01T22:57:40.067Z,72.77
2016-09-01T22:58:39.810Z,73.15
2016-09-01T22:59:39.668Z,73.41
2016-09-01T23:00:39.740Z,73.31
2016-09-01T23:01:39.729Z,73.41
2016-09-01T23:02:40.624Z,73.79
2016-09-01T23:03:39.564Z,72.54
2016-09-01T23:04:40.339Z,72.48
2016-09-01T23:05:39.518Z,72.48
2016-09-01T23:06:39.551Z,72.67
2016-09-01T23:07:39.464Z,73.02
2016-09-01T23:08:39.473Z,73.31
2016-09-01T23:09:39.410Z,73.02
2016-09-01T23:10:39.402Z,73.5
2016-09-01T23:11:41.225Z,73.79
2016-09-01T23:12:40.197Z,73.99
2016-09-01T23:13:40.118Z,73.89
2016-09-01T23:14:39.302Z,73.79
2016-09-01T23:15:39.327Z,74.08
2016-09-01T23:16:39.332Z,74.08
2016-09-01T23:17:40.039Z,74.08
2016-09-01T23:18:41.444Z,74.27
2016-09-01T23:19:39.197Z,73.69
2016-09-01T23:20:39.169Z,73.21
2016-09-01T23:21:39.982Z,72.58
2016-09-01T23:22:39.129Z,72.48
2016-09-01T23:23:39.076Z,71.9
2016-09-01T23:24:39.062Z,71.8
2016-09-01T23:25:39.033Z,70.64
2016-09-01T23:26:39.004Z,69.97
2016-09-01T23:27:39.787Z,69.71
2016-09-01T23:28:38.967Z,69.9
2016-09-01T23:29:38.937Z,70.45
2016-09-01T23:30:40.070Z,72
2016-09-01T23:31:39.669Z,72.25
2016-09-01T23:32:38.869Z,72.73
2016-09-01T23:33:38.848Z,72.54
2016-09-01T23:34:38.816Z,72.54
2016-09-01T23:35:38.827Z,73.21
2016-09-01T23:36:53.442Z,73.95
2016-09-01T23:37:38.741Z,74.05
2016-09-01T23:38:53.402Z,74.05
2016-09-01T23:39:39.047Z,73.95
2016-09-01T23:40:38.665Z,73.75
2016-09-01T23:41:38.654Z,73.75
2016-09-01T23:42:39.426Z,73.85
2016-09-01T23:43:38.605Z,74.91
2016-09-01T23:44:38.646Z,74.33
2016-09-01T23:45:38.603Z,74.49
2016-09-01T23:46:39.568Z,74.78
2016-09-01T23:47:38.501Z,75.16
2016-09-01T23:48:38.534Z,74.58
2016-09-01T23:49:38.453Z,73.95
2016-09-01T23:50:39.428Z,74.72
2016-09-01T23:51:38.443Z,74.49
2016-09-01T23:52:38.427Z,74.68
2016-09-01T23:53:39.164Z,75.07
2016-09-01T23:54:38.352Z,75.07
2016-09-01T23:55:39.092Z,74.97
2016-09-01T23:56:39.109Z,74.97
2016-09-01T23:57:52.927Z,75.1
2016-09-01T23:58:38.239Z,74.88
2016-09-01T23:59:38.207Z,73.08
